Time;durP1;ratioP1;P1;durP2;ratioP2;P2;SDS_P1;SDS_P2;PMS_P1;PMS_P2;Temp;Humidity;BMP_temperature;BMP_pressure;BME280_temperature;BME280_humidity;BME280_pressure;Samples;Min_cycle;Max_cycle;Signal;HPM_P1;HPM_P2
2023/06/04 00:01:29;;;;;;;0.00;0.00;;;;;;;-145.06;83.85;91543.16;10322168;28;20468;-75
2023/06/04 00:06:29;;;;;;;0.00;0.00;;;;;;;-145.06;84.55;91530.88;10322329;28;20014;-75
2023/06/04 00:11:30;;;;;;;0.10;0.10;;;;;;;-145.06;85.20;91528.84;10326322;28;20265;-75
2023/06/04 00:16:31;;;;;;;0.00;0.00;;;;;;;-145.06;85.73;91561.53;10331812;28;20514;-75
2023/06/04 00:21:31;;;;;;;0.00;0.00;;;;;;;-145.06;85.39;91563.59;10326580;28;20036;-75
2023/06/04 00:26:31;;;;;;;0.00;0.00;;;;;;;-145.06;85.74;91586.06;10331334;28;20465;-75
2023/06/04 00:31:31;;;;;;;0.00;0.00;;;;;;;-145.06;85.72;91555.41;10332176;28;20486;-76
2023/06/04 00:36:32;;;;;;;0.00;0.00;;;;;;;-145.06;87.11;91555.41;10343594;28;20382;-75
2023/06/04 00:41:32;;;;;;;0.00;0.00;;;;;;;-145.06;88.95;91598.34;10346800;28;20038;-75
2023/06/04 00:46:35;;;;;;;0.00;0.00;;;;;;;-145.06;90.40;91608.56;10332986;28;20038;-75
2023/06/04 00:51:36;;;;;;;0.00;0.00;;;;;;;-145.06;91.63;91608.56;10346581;28;20030;-75
2023/06/04 00:56:38;;;;;;;0.00;0.00;;;;;;;-145.06;92.54;91651.50;10330376;28;20077;-75
2023/06/04 01:01:42;;;;;;;0.00;0.00;;;;;;;-145.06;93.20;91616.75;10343632;28;20506;-75
2023/06/04 01:06:45;;;;;;;0.00;0.00;;;;;;;-145.06;94.03;91637.19;10328523;28;20021;-75
2023/06/04 01:11:45;;;;;;;0.00;0.00;;;;;;;-145.06;94.13;91643.31;10315354;28;20471;-75
2023/06/04 01:17:10;;;;;;;0.00;0.00;;;;;;;-145.06;94.80;91651.50;10339434;28;20017;-75
2023/06/04 01:22:34;;;;;;;0.03;0.03;;;;;;;-145.06;95.60;91647.41;10343048;28;20030;-76
2023/06/04 01:27:35;;;;;;;0.00;0.00;;;;;;;-145.06;96.22;91674.00;10337908;28;20030;-75
2023/06/04 01:32:36;;;;;;;0.08;0.08;;;;;;;-145.06;97.65;91659.69;10343329;28;20495;-75
2023/06/04 01:37:36;;;;;;;0.05;0.05;;;;;;;-145.06;98.66;91671.94;10322500;28;20014;-75
2023/06/04 01:42:36;;;;;;;0.00;0.00;;;;;;;-145.06;100.00;91680.13;10350389;28;20414;-76
2023/06/04 01:47:37;;;;;;;0.00;0.00;;;;;;;-145.06;100.00;91684.22;10343616;28;20025;-75
2023/06/04 01:52:38;;;;;;;0.00;0.00;;;;;;;-145.06;100.00;91706.69;10311853;28;20384;-75
2023/06/04 01:57:40;;;;;;;0.00;0.00;;;;;;;-145.06;100.00;91733.28;10341496;28;20076;-75
2023/06/04 02:02:43;;;;;;;0.00;0.00;;;;;;;-145.06;100.00;91718.97;10337163;28;20387;-75
2023/06/04 02:07:45;;;;;;;0.00;0.00;;;;;;;-145.06;100.00;91753.72;10338094;28;20475;-75
2023/06/04 02:13:02;;;;;;;0.00;0.00;;;;;;;-145.06;100.00;91759.84;10337841;28;20026;-75
2023/06/04 02:18:17;;;;;;;0.00;0.00;;;;;;;-145.06;100.00;91817.09;10332182;28;20110;-75
2023/06/04 02:23:19;;;;;;;0.00;0.00;;;;;;;-145.06;100.00;91815.06;10324770;28;20025;-75
2023/06/04 02:28:20;;;;;;;0.00;0.00;;;;;;;-145.06;100.00;91776.22;10351921;28;20526;-75
2023/06/04 02:33:21;;;;;;;0.00;0.00;;;;;;;-145.06;100.00;91837.53;10333179;28;20150;-75
2023/06/04 02:38:21;;;;;;;0.00;0.00;;;;;;;-145.06;100.00;91806.88;10352219;28;20018;-75
2023/06/04 02:43:21;;;;;;;0.00;0.00;;;;;;;-145.06;100.00;91804.81;10344629;28;20372;-75
2023/06/04 02:48:21;;;;;;;0.00;0.00;;;;;;;-145.06;100.00;91837.53;10332247;28;20019;-75
2023/06/04 02:53:23;;;;;;;0.00;0.00;;;;;;;-145.06;100.00;91813.00;10349722;23;20038;-73
2023/06/04 02:58:24;;;;;;;0.00;0.00;;;;;;;-145.06;100.00;91855.94;10343689;28;20101;-73
2023/06/04 03:03:26;;;;;;;0.00;0.00;;;;;;;-145.06;100.00;91817.09;10365011;28;20049;-73
2023/06/04 03:08:26;;;;;;;0.00;0.00;;;;;;;-145.06;100.00;91753.72;10363611;28;20114;-74
2023/06/04 03:13:27;;;;;;;0.00;0.00;;;;;;;-145.06;100.00;91469.56;10366264;28;20036;-73
2023/06/04 03:18:28;;;;;;;0.00;0.00;;;;;;;-145.06;100.00;91416.41;10366493;28;20029;-73
2023/06/04 03:23:28;;;;;;;0.00;0.00;;;;;;;-145.06;100.00;91324.41;10365855;28;20075;-73
2023/06/04 03:28:29;;;;;;;0.00;0.00;;;;;;;-145.06;100.00;91236.50;10364216;28;20079;-73
2023/06/04 03:33:30;;;;;;;0.00;0.00;;;;;;;-145.06;100.00;91130.22;10365012;28;20025;-73
2023/06/04 03:38:30;;;;;;;0.00;0.00;;;;;;;-145.06;100.00;91081.16;10366757;28;20033;-73
2023/06/04 03:43:30;;;;;;;0.00;0.00;;;;;;;-145.06;100.00;90950.34;10360665;28;20029;-73
2023/06/04 03:48:30;;;;;;;0.00;0.00;;;;;;;-145.06;97.01;90846.09;10365265;28;20053;-73
2023/06/04 03:53:31;;;;;;;0.10;0.10;;;;;;;-145.06;92.63;90754.13;10354981;28;20160;-74
2023/06/04 03:58:33;;;;;;;0.10;0.10;;;;;;;-145.06;87.09;90627.41;10365334;28;20033;-73
2023/06/04 04:03:36;;;;;;;0.10;0.10;;;;;;;-145.06;84.10;90484.34;10346997;28;20641;-74
2023/06/04 04:08:37;;;;;;;0.10;0.10;;;;;;;-145.06;78.47;90398.50;10365414;28;20042;-74
2023/06/04 04:13:37;;;;;;;0.10;0.10;;;;;;;-145.06;72.40;90247.25;10365219;28;20029;-74
2023/06/04 04:18:37;;;;;;;0.10;0.10;;;;;;;-145.06;71.16;90226.81;10365772;28;20277;-74
2023/06/04 04:23:41;;;;;;;0.10;0.10;;;;;;;-145.06;68.79;90104.19;10347674;28;20116;-74
2023/06/04 04:28:43;;;;;;;0.10;0.10;;;;;;;-145.06;66.37;90010.19;10363046;28;20038;-74
2023/06/04 04:33:43;;;;;;;0.10;0.10;;;;;;;-145.06;64.63;89932.53;10362962;28;20029;-74
2023/06/04 04:38:46;;;;;;;0.10;0.10;;;;;;;-145.06;62.68;89850.81;10365618;28;20028;-74
2023/06/04 04:43:46;;;;;;;0.13;0.13;;;;;;;-145.06;61.53;89816.06;10366032;28;20033;-74
2023/06/04 04:48:47;;;;;;;0.10;0.10;;;;;;;-145.06;60.70;89740.47;10365947;28;20497;-74
2023/06/04 04:53:47;;;;;;;0.00;0.00;;;;;;;-145.06;59.22;89715.94;10347748;28;20402;-74
2023/06/04 04:58:48;;;;;;;0.00;0.00;;;;;;;-145.06;58.88;89691.41;10364860;28;20458;-74
2023/06/04 05:03:48;;;;;;;0.10;0.10;;;;;;;-145.06;58.59;89675.06;10366550;28;20036;-74
2023/06/04 05:08:49;;;;;;;0.10;0.10;;;;;;;-145.06;57.54;89671.00;10364589;28;20114;-74
2023/06/04 05:13:49;;;;;;;0.10;0.10;;;;;;;-145.06;57.82;89597.44;10361535;28;20036;-74
2023/06/04 05:18:51;;;;;;;0.00;0.00;;;;;;;-145.06;56.61;89564.72;10363006;28;20010;-74
2023/06/04 05:23:51;;;;;;;0.00;0.00;;;;;;;-145.06;54.32;89491.19;10362379;28;20265;-74
2023/06/04 05:28:51;;;;;;;0.00;0.00;;;;;;;-145.06;54.01;89462.56;10365010;28;20017;-74
2023/06/04 05:33:52;;;;;;;0.10;0.10;;;;;;;-145.06;52.41;89393.09;10367190;28;20018;-74
2023/06/04 05:38:56;;;;;;;0.00;0.00;;;;;;;-145.06;51.81;89391.06;10362471;28;20068;-74
2023/06/04 05:43:57;;;;;;;0.00;0.00;;;;;;;-145.06;51.32;89364.50;10349164;28;20026;-75
2023/06/04 05:48:57;;;;;;;0.10;0.10;;;;;;;-145.06;50.36;89344.06;10359614;28;20030;-75
2023/06/04 05:53:57;;;;;;;0.00;0.00;;;;;;;-145.06;49.23;89262.34;10341392;28;20028;-75
2023/06/04 05:58:58;;;;;;;0.10;0.10;;;;;;;-145.06;49.04;89274.59;10361595;28;20030;-75
2023/06/04 06:03:58;;;;;;;0.00;0.00;;;;;;;-145.06;49.41;89272.56;10364560;28;20034;-75
2023/06/04 06:08:58;;;;;;;0.00;0.00;;;;;;;-145.06;47.08;89190.81;10361930;28;20021;-75
2023/06/04 06:13:58;;;;;;;0.10;0.10;;;;;;;-145.06;44.85;89149.97;10361755;28;20072;-74
2023/06/04 06:19:00;;;;;;;0.00;0.00;;;;;;;-145.06;45.09;89131.56;10365772;28;20149;-75
2023/06/04 06:24:01;;;;;;;0.10;0.10;;;;;;;-145.06;44.75;89139.75;10345614;28;20442;-75
2023/06/04 06:29:01;;;;;;;0.10;0.10;;;;;;;-145.06;45.03;89098.88;10346098;28;20021;-75
2023/06/04 06:34:01;;;;;;;0.00;0.00;;;;;;;-145.06;43.75;89068.25;10365615;28;20047;-75
2023/06/04 06:39:02;;;;;;;0.10;0.10;;;;;;;-145.06;40.94;88959.97;10342115;28;20381;-75
2023/06/04 06:44:02;;;;;;;0.00;0.00;;;;;;;-145.06;39.47;88933.41;10343535;28;20095;-75
2023/06/04 06:49:02;;;;;;;0.10;0.10;;;;;;;-145.06;39.99;88927.28;10359808;28;20022;-75
2023/06/04 06:54:03;;;;;;;0.00;0.00;;;;;;;-145.06;38.55;88915.00;10360806;28;20034;-75
2023/06/04 06:59:03;;;;;;;0.00;0.00;;;;;;;-145.06;37.37;88821.03;10361167;28;20036;-75
2023/06/04 07:04:04;;;;;;;0.00;0.00;;;;;;;-145.06;37.34;88814.91;10359371;28;20312;-75
2023/06/04 07:09:05;;;;;;;0.10;0.10;;;;;;;-145.06;37.02;88780.19;10359213;28;20482;-75
2023/06/04 07:14:06;;;;;;;0.00;0.00;;;;;;;-145.06;33.80;88767.91;10366238;28;20025;-75
2023/06/04 07:19:06;;;;;;;0.10;0.10;;;;;;;-145.06;34.89;88763.84;10362730;28;20026;-75
2023/06/04 07:24:06;;;;;;;0.10;0.10;;;;;;;-145.06;35.89;88798.56;10362572;28;20028;-75
2023/06/04 07:29:07;;;;;;;0.00;0.00;;;;;;;-145.06;36.51;88772.00;10365011;28;20067;-75
2023/06/04 07:34:07;;;;;;;0.10;0.10;;;;;;;-145.06;36.42;88737.28;10363612;28;20018;-74
2023/06/04 07:39:07;;;;;;;0.00;0.00;;;;;;;-145.06;35.15;88600.41;10362071;28;20261;-75
2023/06/04 07:44:08;;;;;;;0.10;0.10;;;;;;;-145.06;36.69;88667.81;10359731;28;20382;-75
2023/06/04 07:49:09;;;;;;;0.10;0.10;;;;;;;-145.06;35.70;88661.69;10359697;28;20032;-75
2023/06/04 07:54:10;;;;;;;0.00;0.00;;;;;;;-145.06;34.09;88639.22;10362047;28;20379;-74
2023/06/04 07:59:10;;;;;;;0.00;0.00;;;;;;;-145.06;34.32;88706.63;10337679;28;20479;-75
2023/06/04 08:04:10;;;;;;;0.00;0.00;;;;;;;-145.06;35.45;88671.91;10360049;28;20018;-75
2023/06/04 08:09:11;;;;;;;0.10;0.10;;;;;;;-145.06;35.14;88765.88;10362185;28;20080;-75
2023/06/04 08:14:12;;;;;;;0.00;0.00;;;;;;;-145.06;36.87;88772.00;10358640;28;20137;-75
2023/06/04 08:19:13;;;;;;;0.10;0.10;;;;;;;-145.06;36.04;88772.00;10358381;28;20080;-74
2023/06/04 08:24:14;;;;;;;0.00;0.00;;;;;;;-145.06;36.33;88686.19;10364013;28;20053;-75
2023/06/04 08:29:14;;;;;;;0.10;0.10;;;;;;;-145.06;36.02;88637.19;10348820;28;20026;-74
2023/06/04 08:34:14;;;;;;;0.00;0.00;;;;;;;-145.06;37.42;88718.88;10366252;28;20483;-75
2023/06/04 08:39:14;;;;;;;0.00;0.00;;;;;;;-145.06;36.94;88714.81;10366160;28;20072;-74
2023/06/04 08:44:17;;;;;;;0.00;0.00;;;;;;;-145.06;35.82;88614.72;10365726;28;20076;-75
2023/06/04 08:49:20;;;;;;;0.00;0.00;;;;;;;-145.06;36.21;88653.53;10370765;28;20050;-74
2023/06/04 08:54:21;;;;;;;0.10;0.10;;;;;;;-145.06;37.47;88759.75;10372905;28;20058;-74
2023/06/04 08:59:22;;;;;;;0.00;0.00;;;;;;;-145.06;36.29;88669.88;10373341;28;20117;-74
2023/06/04 09:04:22;;;;;;;0.00;0.00;;;;;;;-145.06;35.91;88696.41;10373369;28;20045;-74
2023/06/04 09:09:24;;;;;;;0.00;0.00;;;;;;;-145.06;37.00;88706.63;10373290;28;20368;-74
2023/06/04 09:14:26;;;;;;;0.00;0.00;;;;;;;-145.06;37.55;88782.22;10372321;28;20014;-74
2023/06/04 09:19:26;;;;;;;0.00;0.00;;;;;;;-145.06;37.23;88747.50;10372936;28;20488;-74
2023/06/04 09:24:46;;;;;;;0.10;0.10;;;;;;;-145.06;38.71;88902.75;10371939;28;20022;-74
2023/06/04 09:29:56;;;;;;;0.00;0.00;;;;;;;-145.06;39.15;88806.75;10372947;28;20376;-74
2023/06/04 09:35:10;;;;;;;0.00;0.00;;;;;;;-145.06;35.53;88688.25;10371760;28;20585;-75
2023/06/04 09:40:10;;;;;;;0.00;0.00;;;;;;;-145.06;37.49;88796.53;10371864;28;20083;-74
2023/06/04 09:45:11;;;;;;;0.00;0.00;;;;;;;-145.06;38.45;88849.63;10371370;28;20038;-74
2023/06/04 09:50:12;;;;;;;0.00;0.00;;;;;;;-145.06;36.56;88839.44;10372103;28;20116;-74
2023/06/04 09:55:20;;;;;;;0.00;0.00;;;;;;;-145.06;37.65;88863.94;10369653;28;20178;-74
2023/06/04 10:00:22;;;;;;;0.00;0.00;;;;;;;-145.06;38.49;88827.16;10370433;28;20049;-74
2023/06/04 10:05:24;;;;;;;;;;;;;;;-145.06;36.66;88733.19;10370746;28;20364;-74
2023/06/04 10:10:26;;;;;;;0.00;0.00;;;;;;;-145.06;36.34;88792.44;10371282;28;19917;-74
2023/06/04 10:15:28;;;;;;;0.00;0.00;;;;;;;-145.06;36.31;88865.97;10371181;28;20029;-74
2023/06/04 10:20:28;;;;;;;0.00;0.00;;;;;;;-145.06;36.91;88812.88;10371428;28;20501;-74
2023/06/04 10:25:29;;;;;;;0.00;0.00;;;;;;;-145.06;36.56;88835.34;10371631;28;20032;-74
2023/06/04 10:30:30;;;;;;;0.00;0.00;;;;;;;-145.06;35.73;88819.00;10353730;28;20045;-74
2023/06/04 10:35:35;;;;;;;0.10;0.10;;;;;;;-145.06;34.02;88745.44;10365026;28;20367;-74
2023/06/04 10:40:37;;;;;;;0.10;0.10;;;;;;;-145.06;33.37;88753.63;10369250;28;20026;-76
2023/06/04 10:45:38;;;;;;;0.00;0.00;;;;;;;-145.06;31.87;88782.22;10368299;28;20054;-75
2023/06/04 10:50:52;;;;;;;0.00;0.00;;;;;;;-145.06;32.08;88970.19;10368688;28;20057;-76
2023/06/04 10:55:52;;;;;;;0.00;0.00;;;;;;;-145.06;32.86;88998.78;10368317;28;20428;-74
2023/06/04 11:00:52;;;;;;;0.00;0.00;;;;;;;-145.06;33.78;88988.56;10368065;28;20068;-73
2023/06/04 11:05:53;;;;;;;0.00;0.00;;;;;;;-145.06;35.79;89145.88;10348793;28;20391;-74
2023/06/04 11:10:53;;;;;;;0.10;0.10;;;;;;;-145.06;35.84;89121.34;10368185;28;20018;-73
2023/06/04 11:15:53;;;;;;;0.00;0.00;;;;;;;-145.06;34.79;89121.34;10368169;28;20541;-75
2023/06/04 11:21:01;;;;;;;0.00;0.00;;;;;;;-145.06;35.76;89227.59;10368359;28;20072;-75
2023/06/04 11:26:02;;;;;;;0.00;0.00;;;;;;;-145.06;36.37;89256.22;10367195;28;20044;-75
2023/06/04 11:31:03;;;;;;;0.00;0.00;;;;;;;-145.06;37.13;89264.38;10367870;28;20018;-75
2023/06/04 11:36:03;;;;;;;0.10;0.10;;;;;;;-145.06;36.48;89303.19;10365565;28;20257;-76
2023/06/04 11:41:05;;;;;;;0.00;0.00;;;;;;;-145.06;37.16;89278.69;10368108;28;20018;-75
2023/06/04 11:46:06;;;;;;;0.00;0.00;;;;;;;-145.06;35.44;89233.72;10349373;28;20034;-75
2023/06/04 11:51:10;;;;;;;0.10;0.10;;;;;;;-145.06;36.86;89262.34;10367035;28;20092;-76
2023/06/04 11:56:11;;;;;;;0.00;0.00;;;;;;;-145.06;35.34;89237.81;10365909;28;20116;-75
2023/06/04 12:01:13;;;;;;;0.00;0.00;;;;;;;-145.06;35.83;89299.13;10366790;28;20112;-75
2023/06/04 12:06:21;;;;;;;0.00;0.00;;;;;;;-145.06;37.70;89354.28;10364214;28;20026;-74
2023/06/04 12:11:32;;;;;;;0.00;0.00;;;;;;;-145.06;39.19;89405.34;10367263;28;20036;-74
2023/06/04 12:16:33;;;;;;;0.00;0.00;;;;;;;-145.06;36.90;89366.53;10364592;28;20025;-75
2023/06/04 12:21:33;;;;;;;0.00;0.00;;;;;;;-145.06;38.35;89450.31;10369536;28;20478;-74
2023/06/04 12:26:37;;;;;;;0.00;0.00;;;;;;;-145.06;37.45;89368.59;10357039;28;20022;-73
2023/06/04 12:31:39;;;;;;;0.00;0.00;;;;;;;-145.06;37.67;89433.97;10374791;28;20022;-74
2023/06/04 12:36:40;;;;;;;0.00;0.00;;;;;;;-145.06;38.51;89429.88;10373890;28;20029;-74
2023/06/04 12:41:45;;;;;;;0.00;0.00;;;;;;;-145.06;37.96;89440.09;10374296;28;20534;-74
2023/06/04 12:46:45;;;;;;;0.00;0.00;;;;;;;-145.06;38.87;89478.91;10373413;28;20022;-74
2023/06/04 12:51:46;;;;;;;0.00;0.00;;;;;;;-145.06;38.70;89458.47;10356721;28;20029;-74
2023/06/04 12:56:47;;;;;;;0.00;0.00;;;;;;;-145.06;39.66;89536.13;10374405;28;20398;-74
2023/06/04 13:01:47;;;;;;;0.00;0.00;;;;;;;-145.06;41.13;89613.78;10367958;28;20033;-74
2023/06/04 13:06:47;;;;;;;0.10;0.10;;;;;;;-145.06;39.59;89536.13;10372642;28;20702;-74
2023/06/04 13:11:48;;;;;;;0.00;0.00;;;;;;;-145.06;40.25;89579.03;10372896;28;20030;-74
2023/06/04 13:16:48;;;;;;;0.00;0.00;;;;;;;-145.06;38.82;89527.97;10372403;28;20025;-73
2023/06/04 13:21:49;;;;;;;0.00;0.00;;;;;;;-145.06;40.30;89585.16;10372219;28;20030;-74
2023/06/04 13:26:49;;;;;;;0.00;0.00;;;;;;;-145.06;41.67;89638.28;10354130;28;20021;-74
2023/06/04 13:31:50;;;;;;;0.00;0.00;;;;;;;-145.06;41.83;89617.84;10366545;28;20099;-73
2023/06/04 13:36:50;;;;;;;0.00;0.00;;;;;;;-145.06;41.53;89624.00;10371306;28;20025;-74
2023/06/04 13:41:50;;;;;;;0.00;0.00;;;;;;;-145.06;42.54;89658.72;10372507;28;20120;-73
2023/06/04 13:46:51;;;;;;;0.00;0.00;;;;;;;-145.06;41.45;89675.06;10368261;28;20022;-74
2023/06/04 13:51:51;;;;;;;0.00;0.00;;;;;;;-145.06;43.37;89744.56;10369179;28;20517;-74
2023/06/04 13:56:51;;;;;;;0.07;0.07;;;;;;;-145.06;43.44;89715.94;10371413;28;20018;-73
2023/06/04 14:01:52;;;;;;;0.10;0.10;;;;;;;-145.06;42.76;89715.94;10366440;28;20483;-74
2023/06/04 14:06:52;;;;;;;0.10;0.10;;;;;;;-145.06;42.37;89707.78;10370586;28;20032;-74
2023/06/04 14:11:52;;;;;;;0.00;0.00;;;;;;;-145.06;42.68;89724.13;10353819;28;20174;-74
2023/06/04 14:16:54;;;;;;;0.10;0.10;;;;;;;-145.06;44.05;89752.72;10370196;28;20080;-74
2023/06/04 14:21:54;;;;;;;0.10;0.10;;;;;;;-145.06;41.52;89724.13;10371121;28;20024;-74
2023/06/04 14:26:55;;;;;;;0.10;0.10;;;;;;;-145.06;41.50;89724.13;10351697;28;20376;-72
2023/06/04 14:31:55;;;;;;;0.00;0.00;;;;;;;-145.06;42.31;89742.50;10369990;28;20152;-73
2023/06/04 14:36:59;;;;;;;0.10;0.10;;;;;;;-145.06;43.80;89779.28;10369790;28;20025;-74
2023/06/04 14:41:59;;;;;;;0.00;0.00;;;;;;;-145.06;42.23;89740.47;10370453;28;20445;-74
2023/06/04 14:47:00;;;;;;;0.00;0.00;;;;;;;-145.06;42.73;89715.94;10369015;28;20028;-74
2023/06/04 14:52:00;;;;;;;0.10;0.10;;;;;;;-145.06;43.37;89769.06;10369661;28;20029;-72
2023/06/04 14:57:00;;;;;;;0.10;0.10;;;;;;;-145.06;43.75;89797.69;10358025;23;20046;-74
2023/06/04 15:02:01;;;;;;;0.00;0.00;;;;;;;-145.06;44.40;89801.75;10297785;28;20038;-74
2023/06/04 15:07:02;;;;;;;0.00;0.00;;;;;;;-145.06;46.24;89846.72;10316085;28;20125;-74
2023/06/04 15:12:02;;;;;;;0.10;0.10;;;;;;;-145.06;46.75;89834.47;10317874;28;20026;-74
2023/06/04 15:17:03;;;;;;;0.00;0.00;;;;;;;-145.06;46.02;89842.63;10298242;28;20022;-74
2023/06/04 15:22:04;;;;;;;0.10;0.10;;;;;;;-145.06;46.20;89826.28;10295702;28;20034;-74
2023/06/04 15:27:04;;;;;;;0.00;0.00;;;;;;;-145.06;45.32;89826.28;10310761;28;20030;-74
2023/06/04 15:32:05;;;;;;;0.10;0.10;;;;;;;-145.06;45.35;89863.06;10304650;28;20035;-74
2023/06/04 15:37:05;;;;;;;0.00;0.00;;;;;;;-145.06;46.63;89861.03;10312198;28;20018;-73
2023/06/04 15:42:06;;;;;;;0.10;0.10;;;;;;;-145.06;46.33;89930.50;10311926;28;20469;-74
2023/06/04 15:47:07;;;;;;;0.10;0.10;;;;;;;-145.06;46.27;89891.69;10307766;28;20027;-74
2023/06/04 15:52:07;;;;;;;0.00;0.00;;;;;;;-145.06;46.61;89887.59;10302904;28;20537;-74
2023/06/04 15:57:08;;;;;;;0.00;0.00;;;;;;;-145.06;47.18;89961.16;10296085;28;20069;-74
2023/06/04 16:02:08;;;;;;;0.10;0.10;;;;;;;-145.06;47.74;89979.53;10297241;28;20069;-74
2023/06/04 16:07:08;;;;;;;0.10;0.10;;;;;;;-145.06;49.58;90096.03;10304625;28;20113;-74
2023/06/04 16:12:09;;;;;;;0.10;0.10;;;;;;;-145.06;48.85;90049.03;10292448;28;20097;-73
2023/06/04 16:17:09;;;;;;;0.10;0.10;;;;;;;-145.06;49.97;90089.91;10297679;28;20030;-73
2023/06/04 16:22:10;;;;;;;0.10;0.10;;;;;;;-145.06;51.19;90077.63;10301702;28;20019;-74
2023/06/04 16:27:10;;;;;;;0.00;0.00;;;;;;;-145.06;52.62;90134.84;10280644;28;20010;-74
2023/06/04 16:32:11;;;;;;;0.00;0.00;;;;;;;-145.06;53.12;90165.50;10292013;28;20065;-74
2023/06/04 16:37:11;;;;;;;0.00;0.00;;;;;;;-145.06;53.02;90202.31;10297340;28;20027;-74
2023/06/04 16:42:12;;;;;;;0.03;0.03;;;;;;;-145.06;53.09;90194.13;10297968;28;20381;-74
2023/06/04 16:47:13;;;;;;;0.10;0.10;;;;;;;-145.06;54.12;90251.34;10303207;28;20097;-74
2023/06/04 16:52:13;;;;;;;0.10;0.10;;;;;;;-145.06;54.73;90345.34;10293881;28;20038;-74
2023/06/04 16:57:13;;;;;;;0.10;0.10;;;;;;;-145.06;56.00;90504.78;10288638;28;20054;-74
2023/06/04 17:02:14;;;;;;;0.10;0.10;;;;;;;-145.06;56.51;90566.09;10298713;28;20029;-74
2023/06/04 17:07:14;;;;;;;0.00;0.00;;;;;;;-145.06;56.71;90547.69;10301737;28;20022;-74
2023/06/04 17:12:15;;;;;;;0.10;0.10;;;;;;;-145.06;56.86;90633.53;10302736;28;20483;-74
2023/06/04 17:17:15;;;;;;;0.00;0.00;;;;;;;-145.06;57.52;90625.34;10316963;28;20018;-74
2023/06/04 17:22:15;;;;;;;0.10;0.10;;;;;;;-145.06;58.38;90694.84;10321855;28;20022;-74
2023/06/04 17:27:16;;;;;;;0.10;0.10;;;;;;;-145.06;56.83;90668.28;10314544;28;20022;-74
2023/06/04 17:32:17;;;;;;;0.10;0.10;;;;;;;-145.06;56.98;90709.16;10321693;28;20112;-74
2023/06/04 17:37:17;;;;;;;0.10;0.10;;;;;;;-145.06;57.47;90727.53;10325802;28;20018;-74
2023/06/04 17:42:17;;;;;;;0.10;0.10;;;;;;;-145.06;57.84;90721.41;10283315;28;20072;-74
2023/06/04 17:47:17;;;;;;;0.10;0.10;;;;;;;-145.06;59.42;90778.66;10298921;28;20011;-74
2023/06/04 17:52:18;;;;;;;0.00;0.00;;;;;;;-145.06;60.52;90790.91;10295577;28;20030;-74
2023/06/04 17:57:18;;;;;;;0.10;0.10;;;;;;;-145.06;62.12;90837.91;10293713;28;20023;-74
2023/06/04 18:02:18;;;;;;;0.10;0.10;;;;;;;-145.06;63.58;90891.06;10297387;28;20431;-74
2023/06/04 18:07:19;;;;;;;0.10;0.10;;;;;;;-145.06;64.00;90848.13;10304589;28;20498;-74
2023/06/04 18:12:20;;;;;;;0.10;0.10;;;;;;;-145.06;64.34;90864.50;10293097;28;20476;-74
2023/06/04 18:17:20;;;;;;;0.10;0.10;;;;;;;-145.06;65.49;90923.78;10300114;28;20022;-74
2023/06/04 18:22:21;;;;;;;0.10;0.10;;;;;;;-145.06;67.66;90880.84;10299208;28;20708;-74
2023/06/04 18:27:21;;;;;;;0.10;0.10;;;;;;;-145.06;68.92;90929.91;10301101;28;20022;-74
2023/06/04 18:32:21;;;;;;;0.10;0.10;;;;;;;-145.06;69.98;90974.88;10301083;28;20034;-74
2023/06/04 18:37:22;;;;;;;0.00;0.00;;;;;;;-145.06;72.34;91001.44;10287118;28;20019;-74
2023/06/04 18:42:22;;;;;;;0.10;0.10;;;;;;;-145.06;74.11;90989.19;10307293;28;20022;-73
2023/06/04 18:47:22;;;;;;;0.10;0.10;;;;;;;-145.06;75.52;91011.66;10299746;28;20022;-74
2023/06/04 18:52:22;;;;;;;0.10;0.10;;;;;;;-145.06;76.97;91023.91;10288207;28;20026;-74
2023/06/04 18:57:23;;;;;;;0.10;0.10;;;;;;;-145.06;81.16;91054.59;10295828;28;20015;-74
2023/06/04 19:02:23;;;;;;;0.10;0.10;;;;;;;-145.06;85.78;91097.50;10295718;28;20029;-74
2023/06/04 19:07:23;;;;;;;0.10;0.10;;;;;;;-145.06;86.82;91144.53;10300639;28;20391;-74
2023/06/04 19:12:25;;;;;;;0.10;0.10;;;;;;;-145.06;86.16;91122.03;10290064;28;20278;-74
2023/06/04 19:17:28;;;;;;;0.10;0.10;;;;;;;-145.06;88.91;91142.47;10313687;28;20026;-74
2023/06/04 19:22:29;;;;;;;0.00;0.00;;;;;;;-145.06;90.53;91158.84;10301426;28;20025;-74
2023/06/04 19:27:29;;;;;;;0.10;0.10;;;;;;;-145.06;93.10;91218.13;10281946;28;20027;-74
2023/06/04 19:32:29;;;;;;;0.10;0.10;;;;;;;-145.06;94.42;91207.91;10287164;28;20035;-74
2023/06/04 19:37:30;;;;;;;0.10;0.10;;;;;;;-145.06;96.39;91275.34;10280257;28;20045;-74
2023/06/04 19:42:30;;;;;;;0.10;0.10;;;;;;;-145.06;97.24;91252.88;10293337;28;20501;-74
2023/06/04 19:47:30;;;;;;;0.10;0.10;;;;;;;-145.06;99.03;91267.19;10279203;28;20026;-75
2023/06/04 19:52:31;;;;;;;0.10;0.10;;;;;;;-145.06;100.00;91283.53;10290725;28;20026;-73
2023/06/04 19:57:31;;;;;;;0.10;0.10;;;;;;;-145.06;100.00;91334.63;10293737;28;20471;-74
2023/06/04 20:02:31;;;;;;;0.10;0.10;;;;;;;-145.06;98.81;91326.47;10297766;28;20684;-74
2023/06/04 20:07:34;;;;;;;0.17;0.17;;;;;;;-145.06;98.74;91326.47;10301494;28;20109;-74
2023/06/04 20:12:35;;;;;;;0.00;0.00;;;;;;;-145.06;98.79;91328.50;10291332;28;20022;-74
2023/06/04 20:17:35;;;;;;;0.10;0.10;;;;;;;-145.06;99.04;91322.38;10273991;28;20195;-74
2023/06/04 20:22:35;;;;;;;0.05;0.05;;;;;;;-145.06;100.00;91373.47;10288259;28;20046;-74
2023/06/04 20:27:36;;;;;;;0.10;0.10;;;;;;;-145.06;100.00;91373.47;10288463;28;20023;-74
2023/06/04 20:32:37;;;;;;;0.10;0.10;;;;;;;-145.06;100.00;91383.69;10295798;28;20740;-73
2023/06/04 20:37:39;;;;;;;0.10;0.10;;;;;;;-145.06;100.00;91395.97;10301532;28;20019;-74
2023/06/04 20:42:40;;;;;;;0.10;0.10;;;;;;;-145.06;100.00;91410.28;10286065;28;20435;-75
2023/06/04 20:47:40;;;;;;;0.10;0.10;;;;;;;-145.06;100.00;91387.78;10308875;28;20443;-75
2023/06/04 20:52:41;;;;;;;0.10;0.10;;;;;;;-145.06;100.00;91436.84;10315350;28;20031;-75
2023/06/04 20:57:41;;;;;;;0.10;0.10;;;;;;;-145.06;100.00;91438.88;10365192;23;20124;-71
2023/06/04 21:02:41;;;;;;;0.00;0.00;;;;;;;-145.06;100.00;91453.19;10376611;28;20061;-70
2023/06/04 21:07:41;;;;;;;0.10;0.10;;;;;;;-145.06;100.00;91526.78;10375203;28;20031;-71
2023/06/04 21:12:42;;;;;;;0.03;0.03;;;;;;;-145.06;100.00;91477.72;10369265;28;20554;-70
2023/06/04 21:17:42;;;;;;;0.10;0.10;;;;;;;-145.06;100.00;91465.47;10348221;28;20513;-69
2023/06/04 21:22:42;;;;;;;0.10;0.10;;;;;;;-145.06;100.00;91459.34;10367237;28;20133;-71
2023/06/04 21:27:42;;;;;;;0.08;0.08;;;;;;;-145.06;100.00;91508.41;10369267;28;20084;-71
2023/06/04 21:32:45;;;;;;;0.10;0.10;;;;;;;-145.06;100.00;91514.53;10356918;28;20022;-72
2023/06/04 21:37:45;;;;;;;0.10;0.10;;;;;;;-145.06;100.00;91530.88;10353891;28;20049;-72
2023/06/04 21:42:45;;;;;;;0.10;0.10;;;;;;;-145.06;100.00;91551.31;10353963;28;20033;-72
2023/06/04 21:47:46;;;;;;;0.00;0.00;;;;;;;-145.06;100.00;91528.84;10360872;28;20026;-72
2023/06/04 21:52:46;;;;;;;0.00;0.00;;;;;;;-145.06;100.00;91551.31;10346498;28;20021;-72
2023/06/04 21:57:46;;;;;;;0.10;0.10;;;;;;;-145.06;100.00;91553.38;10328183;28;20042;-72
2023/06/04 22:02:47;;;;;;;0.00;0.00;;;;;;;-145.06;100.00;91557.47;10373385;28;20040;-72
2023/06/04 22:07:47;;;;;;;0.00;0.00;;;;;;;-145.06;100.00;91575.84;10341994;28;20041;-72
2023/06/04 22:12:47;;;;;;;0.00;0.00;;;;;;;-145.06;100.00;91596.31;10368929;28;20501;-72
2023/06/04 22:17:48;;;;;;;0.00;0.00;;;;;;;-145.06;100.00;91584.03;10346717;28;20105;-72
2023/06/04 22:22:48;;;;;;;0.10;0.10;;;;;;;-145.06;100.00;91596.31;10349787;28;20277;-72
2023/06/04 22:27:48;;;;;;;0.10;0.10;;;;;;;-145.06;100.00;91616.75;10350912;28;20025;-72
2023/06/04 22:32:48;;;;;;;0.00;0.00;;;;;;;-145.06;100.00;91633.09;10359173;28;20414;-73
2023/06/04 22:37:49;;;;;;;0.10;0.10;;;;;;;-145.06;100.00;91643.31;10349472;28;20029;-73
2023/06/04 22:42:49;;;;;;;0.00;0.00;;;;;;;-145.06;100.00;91647.41;10359754;28;20441;-73